METAR Data
IDs: Format: Raw Decoded Include TAF

Data at: 1759 UTC 21 Nov 2018

Region: TOP
KATL 211752Z 27007KT 230V320 10SM FEW250 13/02 A3025 RMK AO2 SLP247 T01330017 10133 20011 58015

KBOS 211754Z 22016G21KT 10SM FEW050 OVC095 05/M04 A2987 RMK AO2 SLP115 T00501039 10050 20006 56038

KBWI 211754Z 24014G21KT 10SM FEW055 FEW095 FEW250 10/M03 A3008 RMK AO2 SLP186 ACSL ALQDS T01001033 10106 21022 56023

KCLE 211751Z 27011KT 6SM -SN BR SCT015 BKN022 OVC028 01/M01 A3022 RMK AO2 SNB03 SLP240 P0000 60000 T00111011 10011 20006 51007

KCLT 211752Z 28004KT 10SM CLR 13/01 A3021 RMK AO2 SLP230 T01330006 10133 21006 58018

KCVG 211752Z 27008KT 9SM FEW026 06/M01 A3027 RMK AO2 SLP254 T00561011 10056 21022 58006

KDCA 211752Z 23008G16KT 10SM FEW080 11/M04 A3011 RMK AO2 SLP196 T01111039 10111 20011 58024

KDEN 211753Z 24005KT 10SM CLR 12/M12 A3018 RMK AO2 SLP201 T01221122 10128 21011 50000

KDFW 211753Z VRB03KT 10SM SCT180 BKN240 14/00 A3036 RMK AO2 SLP279 T01390000 10139 20011 58004

KDTW 211753Z 34012G19KT 10SM FEW030 BKN040 BKN230 01/M07 A3024 RMK AO2 SLP245 T00111072 10028 20006 51017

KEWR 211751Z 24016G25KT 10SM SCT045 BKN100 BKN250 07/M04 A3000 RMK AO2 PK WND 24028/1654 SLP158 T00721039 10072 20011 56025

KFLL 211753Z 08005KT 10SM BKN030 BKN060 BKN250 27/21 A3009 RMK T02680208 10269 20211

KIAD 211752Z 29004KT 10SM FEW085 10/M04 A3010 RMK AO2 SLP193 T01001039 10100 21022 58023

KIAH 211753Z VRB05KT 10SM SCT150 SCT250 16/07 A3034 RMK AO2 SLP273 T01560067 10156 20056 58008

KJFK 211751Z 27018G29KT 10SM FEW055 BKN110 BKN140 07/M03 A3001 RMK AO2 PK WND 27029/1737 SLP161 T00721028 10078 20028 56028

KLAS 211756Z 02003KT 10SM FEW250 16/M12 A3017 RMK AO2 SLP211 T01561117 10156 20072 50006

KLAX 211753Z VRB03KT 5SM HZ FEW018 FEW025 SCT160 SCT180 18/10 A3015 RMK AO2 SLP210 T01830100 10189 20128 51009

KLGA 211751Z 27014G24KT 10SM FEW048 OVC100 07/M05 A2999 RMK AO2 PK WND 27027/1721 SLP154 T00671050 10072 20033 56027

KMCO 211753Z 32007KT 10SM FEW045 24/11 A3015 RMK AO2 SLP208 T02390111 10239 20144 58017

KMDW 211753Z 03011KT 10SM OVC024 02/M05 A3031 RMK AO2 SLP274 T00171050 10022 21006 51010

KMEM 211754Z 00000KT 10SM SCT250 11/02 A3039 RMK AO2 SLP291 T01060022 10106 21011 58010

KMIA 211753Z VRB04KT 10SM BKN030TCU BKN075 28/21 A3008 RMK AO2 SLP187 TCU OHD AND ALQDS T02780211 10278 20222 58018

KMSP 211753Z 07008G16KT 10SM FEW050 OVC085 M04/M09 A3033 RMK AO2 SLP284 60000 T10391094 11028 21044 50004

KORD 211751Z 03010KT 10SM SCT027 OVC190 02/M06 A3030 RMK AO2 SLP269 T00171056 10017 21006 50012

KPDX 211753Z 15006KT 10SM -RA OVC075 08/01 A2987 RMK AO2 RAB48 SLP114 P0000 60000 T00780006 10083 20067 53019

KPHL 211754Z 23014KT 10SM SCT050 BKN100 08/M03 A3006 RMK AO2 SLP178 T00831028 10089 20000 56026

KPHX 211751Z 12006KT 10SM FEW250 19/00 A3015 RMK AO2 SLP199 T01890000 10189 20106 51010

KPIT 211751Z 26012G20KT 9SM OVC016 00/M03 A3017 RMK AO2 SLP235 60000 T00001028 10000 21006 50003

KSAN 211751Z 00000KT 10SM FEW200 BKN250 18/08 A3016 RMK AO2 SLP214 T01830083 10183 20133 53007

KSEA 211753Z 26007KT 10SM OVC060 09/05 A2979 RMK AO2 SLP094 T00940050 10117 20089 53004

KSFO 211756Z VRB03KT 5SM R28R/5000VP6000FT -RA BR FEW012 OVC033 13/12 A2998 RMK AO2 SLP153 P0013 60031 T01330122 10150 20128 53005

KSLC 211754Z 34005KT 10SM FEW210 03/M07 A3025 RMK AO2 SLP254 T00331072 10033 21056 58001

KSTL 211751Z 30003KT 10SM CLR 11/01 A3030 RMK AO2 SLP266 T01110011 10111 21011 58003

KTPA 211753Z 33008KT 10SM FEW030 SCT200 SCT250 24/13 A3016 RMK AO2 SLP212 T02440128 10244 20150 58020